sensor_id;sensor_type;location;lat;lon;timestamp;temperature;humidity
3850;DHT22;1940;51.052;13.678;2022-09-02T00:00:32;13.10;89.50
3850;DHT22;1940;51.052;13.678;2022-09-02T00:02:58;13.00;89.30
3850;DHT22;1940;51.052;13.678;2022-09-02T00:05:23;13.00;89.40
3850;DHT22;1940;51.052;13.678;2022-09-02T00:07:49;13.00;89.40
3850;DHT22;1940;51.052;13.678;2022-09-02T00:10:15;12.90;89.40
3850;DHT22;1940;51.052;13.678;2022-09-02T00:12:41;12.90;89.50
3850;DHT22;1940;51.052;13.678;2022-09-02T00:15:06;12.90;89.40
3850;DHT22;1940;51.052;13.678;2022-09-02T00:17:32;12.80;89.60
3850;DHT22;1940;51.052;13.678;2022-09-02T00:19:57;12.80;90.00
3850;DHT22;1940;51.052;13.678;2022-09-02T00:22:23;12.90;90.00
3850;DHT22;1940;51.052;13.678;2022-09-02T00:24:48;12.90;89.90
3850;DHT22;1940;51.052;13.678;2022-09-02T00:27:14;13.00;89.60
3850;DHT22;1940;51.052;13.678;2022-09-02T00:29:40;12.90;89.60
3850;DHT22;1940;51.052;13.678;2022-09-02T00:32:05;12.80;89.80
3850;DHT22;1940;51.052;13.678;2022-09-02T00:34:31;12.70;90.10
3850;DHT22;1940;51.052;13.678;2022-09-02T00:36:57;12.70;90.40
3850;DHT22;1940;51.052;13.678;2022-09-02T00:39:23;12.70;90.00
3850;DHT22;1940;51.052;13.678;2022-09-02T00:41:49;12.70;89.90
3850;DHT22;1940;51.052;13.678;2022-09-02T00:44:16;12.60;90.10
3850;DHT22;1940;51.052;13.678;2022-09-02T00:46:43;12.60;90.10
3850;DHT22;1940;51.052;13.678;2022-09-02T00:49:13;12.60;90.10
3850;DHT22;1940;51.052;13.678;2022-09-02T00:51:45;12.50;90.30
3850;DHT22;1940;51.052;13.678;2022-09-02T00:54:12;12.50;90.50
3850;DHT22;1940;51.052;13.678;2022-09-02T00:56:39;12.50;90.30
3850;DHT22;1940;51.052;13.678;2022-09-02T00:59:06;12.30;90.80
3850;DHT22;1940;51.052;13.678;2022-09-02T01:01:32;12.30;90.90
3850;DHT22;1940;51.052;13.678;2022-09-02T01:03:58;12.30;90.90
3850;DHT22;1940;51.052;13.678;2022-09-02T01:06:26;12.20;91.20
3850;DHT22;1940;51.052;13.678;2022-09-02T01:08:57;12.30;91.10
3850;DHT22;1940;51.052;13.678;2022-09-02T01:11:36;12.30;91.00
3850;DHT22;1940;51.052;13.678;2022-09-02T01:14:03;12.30;90.90
3850;DHT22;1940;51.052;13.678;2022-09-02T01:16:37;12.30;91.00
3850;DHT22;1940;51.052;13.678;2022-09-02T01:19:07;12.30;91.10
3850;DHT22;1940;51.052;13.678;2022-09-02T01:21:34;12.20;91.10
3850;DHT22;1940;51.052;13.678;2022-09-02T01:24:00;12.30;90.90
3850;DHT22;1940;51.052;13.678;2022-09-02T01:26:26;12.30;90.80
3850;DHT22;1940;51.052;13.678;2022-09-02T01:28:51;12.20;90.90
3850;DHT22;1940;51.052;13.678;2022-09-02T01:31:17;12.20;90.90
3850;DHT22;1940;51.052;13.678;2022-09-02T01:33:42;12.20;90.90
3850;DHT22;1940;51.052;13.678;2022-09-02T01:36:08;12.20;90.80
3850;DHT22;1940;51.052;13.678;2022-09-02T01:38:34;12.10;91.00
3850;DHT22;1940;51.052;13.678;2022-09-02T01:40:59;12.10;91.00
3850;DHT22;1940;51.052;13.678;2022-09-02T01:43:26;12.00;91.20
3850;DHT22;1940;51.052;13.678;2022-09-02T01:45:54;11.90;91.40
3850;DHT22;1940;51.052;13.678;2022-09-02T01:48:20;12.00;91.50
3850;DHT22;1940;51.052;13.678;2022-09-02T01:50:54;12.00;91.50
3850;DHT22;1940;51.052;13.678;2022-09-02T01:53:20;12.00;91.50
3850;DHT22;1940;51.052;13.678;2022-09-02T01:55:46;12.00;91.30
3850;DHT22;1940;51.052;13.678;2022-09-02T01:58:11;11.90;91.20
3850;DHT22;1940;51.052;13.678;2022-09-02T02:00:37;11.90;91.30
3850;DHT22;1940;51.052;13.678;2022-09-02T02:03:02;12.00;91.40
3850;DHT22;1940;51.052;13.678;2022-09-02T02:05:29;12.00;91.50
3850;DHT22;1940;51.052;13.678;2022-09-02T02:07:55;12.00;91.30
3850;DHT22;1940;51.052;13.678;2022-09-02T02:10:21;11.90;91.40
3850;DHT22;1940;51.052;13.678;2022-09-02T02:12:47;11.80;91.60
3850;DHT22;1940;51.052;13.678;2022-09-02T02:15:18;11.80;91.80
3850;DHT22;1940;51.052;13.678;2022-09-02T02:17:44;11.70;91.90
3850;DHT22;1940;51.052;13.678;2022-09-02T02:20:11;11.70;92.00
3850;DHT22;1940;51.052;13.678;2022-09-02T02:22:40;11.60;92.20
3850;DHT22;1940;51.052;13.678;2022-09-02T02:25:06;11.60;92.20
3850;DHT22;1940;51.052;13.678;2022-09-02T02:27:32;11.60;92.20
3850;DHT22;1940;51.052;13.678;2022-09-02T02:29:58;11.60;92.20
3850;DHT22;1940;51.052;13.678;2022-09-02T02:32:23;11.50;92.30
3850;DHT22;1940;51.052;13.678;2022-09-02T02:34:51;11.50;92.40
3850;DHT22;1940;51.052;13.678;2022-09-02T02:37:17;11.40;92.30
3850;DHT22;1940;51.052;13.678;2022-09-02T02:39:42;11.50;92.40
3850;DHT22;1940;51.052;13.678;2022-09-02T02:42:09;11.50;92.20
3850;DHT22;1940;51.052;13.678;2022-09-02T02:44:36;11.60;92.10
3850;DHT22;1940;51.052;13.678;2022-09-02T02:47:03;11.60;92.20
3850;DHT22;1940;51.052;13.678;2022-09-02T02:49:29;11.50;92.20
3850;DHT22;1940;51.052;13.678;2022-09-02T02:51:54;11.50;92.40
3850;DHT22;1940;51.052;13.678;2022-09-02T02:54:20;11.60;92.20
3850;DHT22;1940;51.052;13.678;2022-09-02T02:56:46;11.50;92.30
3850;DHT22;1940;51.052;13.678;2022-09-02T02:59:11;11.60;92.20
3850;DHT22;1940;51.052;13.678;2022-09-02T03:01:37;11.60;92.10
3850;DHT22;1940;51.052;13.678;2022-09-02T03:04:04;11.50;92.00
3850;DHT22;1940;51.052;13.678;2022-09-02T03:06:30;11.50;91.80
3850;DHT22;1940;51.052;13.678;2022-09-02T03:08:55;11.50;91.70
3850;DHT22;1940;51.052;13.678;2022-09-02T03:11:22;11.50;91.70
3850;DHT22;1940;51.052;13.678;2022-09-02T03:13:49;11.50;91.80
3850;DHT22;1940;51.052;13.678;2022-09-02T03:16:15;11.50;91.50
3850;DHT22;1940;51.052;13.678;2022-09-02T03:18:41;11.50;91.30
3850;DHT22;1940;51.052;13.678;2022-09-02T03:21:07;11.40;91.70
3850;DHT22;1940;51.052;13.678;2022-09-02T03:23:33;11.50;91.50
3850;DHT22;1940;51.052;13.678;2022-09-02T03:25:59;11.50;91.50
3850;DHT22;1940;51.052;13.678;2022-09-02T03:28:24;11.50;91.60
3850;DHT22;1940;51.052;13.678;2022-09-02T03:30:50;11.50;91.80
3850;DHT22;1940;51.052;13.678;2022-09-02T03:33:15;11.50;91.80
3850;DHT22;1940;51.052;13.678;2022-09-02T03:35:42;11.50;91.80
3850;DHT22;1940;51.052;13.678;2022-09-02T03:38:09;11.40;91.70
3850;DHT22;1940;51.052;13.678;2022-09-02T03:40:36;11.40;91.70
3850;DHT22;1940;51.052;13.678;2022-09-02T03:43:02;11.30;91.90
3850;DHT22;1940;51.052;13.678;2022-09-02T03:45:28;11.30;91.90
3850;DHT22;1940;51.052;13.678;2022-09-02T03:47:54;11.20;92.10
3850;DHT22;1940;51.052;13.678;2022-09-02T03:50:31;11.30;92.00
3850;DHT22;1940;51.052;13.678;2022-09-02T03:52:58;11.30;91.70
3850;DHT22;1940;51.052;13.678;2022-09-02T03:55:25;11.30;91.50
3850;DHT22;1940;51.052;13.678;2022-09-02T03:57:51;11.30;91.50
3850;DHT22;1940;51.052;13.678;2022-09-02T04:00:18;11.20;91.40
3850;DHT22;1940;51.052;13.678;2022-09-02T04:02:44;11.20;91.40
3850;DHT22;1940;51.052;13.678;2022-09-02T04:05:10;11.20;91.60
3850;DHT22;1940;51.052;13.678;2022-09-02T04:07:37;11.10;91.80
3850;DHT22;1940;51.052;13.678;2022-09-02T04:10:03;11.20;92.10
3850;DHT22;1940;51.052;13.678;2022-09-02T04:12:29;11.20;92.10
3850;DHT22;1940;51.052;13.678;2022-09-02T04:14:54;11.10;92.10
3850;DHT22;1940;51.052;13.678;2022-09-02T04:17:19;11.10;92.20
3850;DHT22;1940;51.052;13.678;2022-09-02T04:19:45;11.10;92.40
3850;DHT22;1940;51.052;13.678;2022-09-02T04:22:10;11.10;92.30
3850;DHT22;1940;51.052;13.678;2022-09-02T04:24:36;11.20;92.20
3850;DHT22;1940;51.052;13.678;2022-09-02T04:27:03;11.30;91.80
3850;DHT22;1940;51.052;13.678;2022-09-02T04:29:28;11.30;91.70
3850;DHT22;1940;51.052;13.678;2022-09-02T04:31:55;11.30;91.50
3850;DHT22;1940;51.052;13.678;2022-09-02T04:34:21;11.30;91.50
3850;DHT22;1940;51.052;13.678;2022-09-02T04:36:46;11.30;91.20
3850;DHT22;1940;51.052;13.678;2022-09-02T04:39:12;11.40;91.10
3850;DHT22;1940;51.052;13.678;2022-09-02T04:41:37;11.40;91.00
3850;DHT22;1940;51.052;13.678;2022-09-02T04:44:04;11.40;90.70
3850;DHT22;1940;51.052;13.678;2022-09-02T04:46:29;11.40;90.90
3850;DHT22;1940;51.052;13.678;2022-09-02T04:48:55;11.50;90.70
3850;DHT22;1940;51.052;13.678;2022-09-02T04:51:24;11.50;90.60
3850;DHT22;1940;51.052;13.678;2022-09-02T04:53:51;11.60;90.30
3850;DHT22;1940;51.052;13.678;2022-09-02T04:56:20;11.90;90.60
3850;DHT22;1940;51.052;13.678;2022-09-02T04:58:47;12.50;89.80
3850;DHT22;1940;51.052;13.678;2022-09-02T05:01:24;13.10;87.70
3850;DHT22;1940;51.052;13.678;2022-09-02T05:03:50;13.80;85.30
3850;DHT22;1940;51.052;13.678;2022-09-02T05:06:22;14.60;83.00
3850;DHT22;1940;51.052;13.678;2022-09-02T05:08:50;15.50;80.10
3850;DHT22;1940;51.052;13.678;2022-09-02T05:11:18;16.20;76.70
3850;DHT22;1940;51.052;13.678;2022-09-02T05:13:46;16.90;74.60
3850;DHT22;1940;51.052;13.678;2022-09-02T05:16:21;17.50;72.50
3850;DHT22;1940;51.052;13.678;2022-09-02T05:18:50;18.30;70.60
3850;DHT22;1940;51.052;13.678;2022-09-02T05:21:16;19.00;68.30
3850;DHT22;1940;51.052;13.678;2022-09-02T05:23:42;19.70;66.40
3850;DHT22;1940;51.052;13.678;2022-09-02T05:26:10;20.40;65.50
3850;DHT22;1940;51.052;13.678;2022-09-02T05:28:37;21.00;64.10
3850;DHT22;1940;51.052;13.678;2022-09-02T05:31:06;21.50;62.30
3850;DHT22;1940;51.052;13.678;2022-09-02T05:33:43;21.80;61.00
3850;DHT22;1940;51.052;13.678;2022-09-02T05:36:12;22.10;60.10
3850;DHT22;1940;51.052;13.678;2022-09-02T05:38:39;22.50;59.30
3850;DHT22;1940;51.052;13.678;2022-09-02T05:41:11;22.60;59.10
3850;DHT22;1940;51.052;13.678;2022-09-02T05:43:39;22.70;59.10
3850;DHT22;1940;51.052;13.678;2022-09-02T05:46:07;22.90;58.30
3850;DHT22;1940;51.052;13.678;2022-09-02T05:48:34;23.20;57.50
3850;DHT22;1940;51.052;13.678;2022-09-02T05:51:27;23.50;56.90
3850;DHT22;1940;51.052;13.678;2022-09-02T05:53:55;23.50;56.70
3850;DHT22;1940;51.052;13.678;2022-09-02T05:56:21;23.70;56.60
3850;DHT22;1940;51.052;13.678;2022-09-02T05:58:47;23.80;56.40
3850;DHT22;1940;51.052;13.678;2022-09-02T06:01:14;23.90;56.40
3850;DHT22;1940;51.052;13.678;2022-09-02T06:03:40;23.90;56.10
3850;DHT22;1940;51.052;13.678;2022-09-02T06:06:05;24.10;55.80
3850;DHT22;1940;51.052;13.678;2022-09-02T06:08:32;24.20;55.30
3850;DHT22;1940;51.052;13.678;2022-09-02T06:10:59;24.30;55.40
3850;DHT22;1940;51.052;13.678;2022-09-02T06:13:27;23.50;56.90
3850;DHT22;1940;51.052;13.678;2022-09-02T06:15:53;23.40;57.70
3850;DHT22;1940;51.052;13.678;2022-09-02T06:18:19;23.40;57.70
3850;DHT22;1940;51.052;13.678;2022-09-02T06:20:46;23.50;57.50
3850;DHT22;1940;51.052;13.678;2022-09-02T06:23:13;23.50;57.60
3850;DHT22;1940;51.052;13.678;2022-09-02T06:25:41;23.70;57.10
3850;DHT22;1940;51.052;13.678;2022-09-02T06:28:07;23.80;56.90
3850;DHT22;1940;51.052;13.678;2022-09-02T06:30:33;24.00;56.40
3850;DHT22;1940;51.052;13.678;2022-09-02T06:32:59;24.10;56.50
3850;DHT22;1940;51.052;13.678;2022-09-02T06:35:27;23.80;57.30
3850;DHT22;1940;51.052;13.678;2022-09-02T06:37:53;23.80;57.30
3850;DHT22;1940;51.052;13.678;2022-09-02T06:40:18;24.30;56.30
3850;DHT22;1940;51.052;13.678;2022-09-02T06:42:44;24.60;55.10
3850;DHT22;1940;51.052;13.678;2022-09-02T06:45:09;24.60;55.40
3850;DHT22;1940;51.052;13.678;2022-09-02T06:47:36;24.40;55.20
3850;DHT22;1940;51.052;13.678;2022-09-02T06:50:02;24.20;55.70
3850;DHT22;1940;51.052;13.678;2022-09-02T06:52:28;24.40;55.40
3850;DHT22;1940;51.052;13.678;2022-09-02T06:54:53;24.80;54.90
3850;DHT22;1940;51.052;13.678;2022-09-02T06:57:20;24.70;55.10
3850;DHT22;1940;51.052;13.678;2022-09-02T06:59:45;25.20;54.90
3850;DHT22;1940;51.052;13.678;2022-09-02T07:02:11;25.30;54.10
3850;DHT22;1940;51.052;13.678;2022-09-02T07:04:37;25.40;53.80
3850;DHT22;1940;51.052;13.678;2022-09-02T07:07:23;25.50;53.90
3850;DHT22;1940;51.052;13.678;2022-09-02T07:09:48;25.80;53.40
3850;DHT22;1940;51.052;13.678;2022-09-02T07:12:14;26.60;52.00
3850;DHT22;1940;51.052;13.678;2022-09-02T07:14:42;27.20;50.80
3850;DHT22;1940;51.052;13.678;2022-09-02T07:17:09;27.70;50.70
3850;DHT22;1940;51.052;13.678;2022-09-02T07:19:36;27.80;50.30
3850;DHT22;1940;51.052;13.678;2022-09-02T07:22:03;27.90;49.50
3850;DHT22;1940;51.052;13.678;2022-09-02T07:24:29;28.50;48.50
3850;DHT22;1940;51.052;13.678;2022-09-02T07:26:55;29.10;48.00
3850;DHT22;1940;51.052;13.678;2022-09-02T07:29:20;29.00;47.60
3850;DHT22;1940;51.052;13.678;2022-09-02T07:31:47;29.30;47.10
3850;DHT22;1940;51.052;13.678;2022-09-02T07:34:13;29.00;47.50
3850;DHT22;1940;51.052;13.678;2022-09-02T07:36:40;29.00;47.90
3850;DHT22;1940;51.052;13.678;2022-09-02T07:39:08;29.20;46.90
3850;DHT22;1940;51.052;13.678;2022-09-02T07:41:36;28.70;47.40
3850;DHT22;1940;51.052;13.678;2022-09-02T07:44:04;28.80;47.50
3850;DHT22;1940;51.052;13.678;2022-09-02T07:46:29;28.90;47.20
3850;DHT22;1940;51.052;13.678;2022-09-02T07:48:58;28.60;47.60
3850;DHT22;1940;51.052;13.678;2022-09-02T07:51:24;28.30;47.60
3850;DHT22;1940;51.052;13.678;2022-09-02T07:53:49;28.30;48.10
3850;DHT22;1940;51.052;13.678;2022-09-02T07:56:16;28.50;47.90
3850;DHT22;1940;51.052;13.678;2022-09-02T07:58:43;28.90;47.80
3850;DHT22;1940;51.052;13.678;2022-09-02T08:01:10;29.60;46.60
3850;DHT22;1940;51.052;13.678;2022-09-02T08:03:38;30.10;45.80
3850;DHT22;1940;51.052;13.678;2022-09-02T08:06:04;30.60;44.70
3850;DHT22;1940;51.052;13.678;2022-09-02T08:08:30;30.50;45.00
3850;DHT22;1940;51.052;13.678;2022-09-02T08:10:57;31.10;44.40
3850;DHT22;1940;51.052;13.678;2022-09-02T08:13:22;31.40;43.80
3850;DHT22;1940;51.052;13.678;2022-09-02T08:15:48;31.70;43.10
3850;DHT22;1940;51.052;13.678;2022-09-02T08:18:14;31.90;42.50
3850;DHT22;1940;51.052;13.678;2022-09-02T08:20:39;31.40;43.40
3850;DHT22;1940;51.052;13.678;2022-09-02T08:23:05;32.10;42.10
3850;DHT22;1940;51.052;13.678;2022-09-02T08:25:33;32.30;41.60
3850;DHT22;1940;51.052;13.678;2022-09-02T08:27:58;32.10;42.10
3850;DHT22;1940;51.052;13.678;2022-09-02T08:30:24;32.40;41.90
3850;DHT22;1940;51.052;13.678;2022-09-02T08:32:50;32.60;41.30
3850;DHT22;1940;51.052;13.678;2022-09-02T08:35:15;32.90;41.50
3850;DHT22;1940;51.052;13.678;2022-09-02T08:37:41;33.00;40.70
3850;DHT22;1940;51.052;13.678;2022-09-02T08:40:13;32.60;41.30
3850;DHT22;1940;51.052;13.678;2022-09-02T08:42:44;32.10;41.90
3850;DHT22;1940;51.052;13.678;2022-09-02T08:47:38;31.80;42.40
3850;DHT22;1940;51.052;13.678;2022-09-02T08:50:13;31.90;41.00
3850;DHT22;1940;51.052;13.678;2022-09-02T08:55:47;32.10;40.30
3850;DHT22;1940;51.052;13.678;2022-09-02T08:58:18;32.50;40.30
3850;DHT22;1940;51.052;13.678;2022-09-02T09:00:51;32.20;40.50
3850;DHT22;1940;51.052;13.678;2022-09-02T09:04:05;31.50;42.10
3850;DHT22;1940;51.052;13.678;2022-09-02T09:09:15;31.80;40.40
3850;DHT22;1940;51.052;13.678;2022-09-02T09:14:45;31.70;39.70
3850;DHT22;1940;51.052;13.678;2022-09-02T09:17:29;31.50;40.40
3850;DHT22;1940;51.052;13.678;2022-09-02T09:20:01;31.20;40.00
3850;DHT22;1940;51.052;13.678;2022-09-02T09:22:31;30.20;40.90
3850;DHT22;1940;51.052;13.678;2022-09-02T09:24:57;30.20;41.30
3850;DHT22;1940;51.052;13.678;2022-09-02T09:27:24;29.70;41.10
3850;DHT22;1940;51.052;13.678;2022-09-02T09:29:50;28.70;42.50
3850;DHT22;1940;51.052;13.678;2022-09-02T09:34:54;29.20;42.60
3850;DHT22;1940;51.052;13.678;2022-09-02T09:37:30;29.40;42.00
3850;DHT22;1940;51.052;13.678;2022-09-02T09:39:56;28.50;43.00
3850;DHT22;1940;51.052;13.678;2022-09-02T09:42:36;27.90;43.60
3850;DHT22;1940;51.052;13.678;2022-09-02T09:50:47;30.00;40.50
3850;DHT22;1940;51.052;13.678;2022-09-02T09:53:24;30.20;40.80
3850;DHT22;1940;51.052;13.678;2022-09-02T09:55:55;30.20;40.50
3850;DHT22;1940;51.052;13.678;2022-09-02T09:58:24;30.50;39.60
3850;DHT22;1940;51.052;13.678;2022-09-02T10:00:51;30.20;40.10
3850;DHT22;1940;51.052;13.678;2022-09-02T10:03:26;30.50;40.30
3850;DHT22;1940;51.052;13.678;2022-09-02T10:05:54;31.10;39.10
3850;DHT22;1940;51.052;13.678;2022-09-02T10:08:23;30.20;39.40
3850;DHT22;1940;51.052;13.678;2022-09-02T10:11:00;30.50;39.90
3850;DHT22;1940;51.052;13.678;2022-09-02T10:13:29;30.50;39.10
3850;DHT22;1940;51.052;13.678;2022-09-02T10:22:22;27.10;42.90
3850;DHT22;1940;51.052;13.678;2022-09-02T10:28:01;25.70;44.90
3850;DHT22;1940;51.052;13.678;2022-09-02T10:30:31;25.50;44.70
3850;DHT22;1940;51.052;13.678;2022-09-02T10:33:12;25.30;45.50
3850;DHT22;1940;51.052;13.678;2022-09-02T10:35:45;25.30;46.20
3850;DHT22;1940;51.052;13.678;2022-09-02T10:38:34;24.90;47.90
3850;DHT22;1940;51.052;13.678;2022-09-02T10:47:12;24.10;49.50
3850;DHT22;1940;51.052;13.678;2022-09-02T10:49:47;23.80;49.80
3850;DHT22;1940;51.052;13.678;2022-09-02T10:58:03;25.30;46.80
3850;DHT22;1940;51.052;13.678;2022-09-02T11:00:31;25.10;47.90
3850;DHT22;1940;51.052;13.678;2022-09-02T11:05:44;24.70;47.70
3850;DHT22;1940;51.052;13.678;2022-09-02T11:08:20;24.50;48.20
3850;DHT22;1940;51.052;13.678;2022-09-02T11:11:18;24.40;47.80
3850;DHT22;1940;51.052;13.678;2022-09-02T11:16:35;24.00;48.60
3850;DHT22;1940;51.052;13.678;2022-09-02T11:19:11;23.50;50.10
3850;DHT22;1940;51.052;13.678;2022-09-02T11:21:53;23.10;51.50
3850;DHT22;1940;51.052;13.678;2022-09-02T11:24:41;22.70;52.60
3850;DHT22;1940;51.052;13.678;2022-09-02T11:27:23;22.70;53.50
3850;DHT22;1940;51.052;13.678;2022-09-02T11:32:47;22.70;52.00
3850;DHT22;1940;51.052;13.678;2022-09-02T11:35:21;22.60;52.40
3850;DHT22;1940;51.052;13.678;2022-09-02T11:37:53;22.50;51.80
3850;DHT22;1940;51.052;13.678;2022-09-02T11:40:32;22.70;52.60
3850;DHT22;1940;51.052;13.678;2022-09-02T11:49:06;23.40;51.40
3850;DHT22;1940;51.052;13.678;2022-09-02T11:51:44;23.40;51.50
3850;DHT22;1940;51.052;13.678;2022-09-02T11:54:15;23.00;51.60
3850;DHT22;1940;51.052;13.678;2022-09-02T11:56:45;22.80;52.20
3850;DHT22;1940;51.052;13.678;2022-09-02T12:02:44;22.40;53.10
3850;DHT22;1940;51.052;13.678;2022-09-02T12:11:05;22.10;53.40
3850;DHT22;1940;51.052;13.678;2022-09-02T12:18:41;22.10;54.20
3850;DHT22;1940;51.052;13.678;2022-09-02T12:21:15;22.30;52.70
3850;DHT22;1940;51.052;13.678;2022-09-02T12:26:17;22.30;52.40
3850;DHT22;1940;51.052;13.678;2022-09-02T12:28:44;22.30;52.60
3850;DHT22;1940;51.052;13.678;2022-09-02T12:31:13;22.40;52.80
3850;DHT22;1940;51.052;13.678;2022-09-02T12:33:45;22.50;52.00
3850;DHT22;1940;51.052;13.678;2022-09-02T12:47:29;22.70;50.70
3850;DHT22;1940;51.052;13.678;2022-09-02T12:50:23;22.70;50.90
3850;DHT22;1940;51.052;13.678;2022-09-02T12:53:05;23.00;51.10
3850;DHT22;1940;51.052;13.678;2022-09-02T12:55:32;23.50;50.20
3850;DHT22;1940;51.052;13.678;2022-09-02T12:58:10;23.60;49.60
3850;DHT22;1940;51.052;13.678;2022-09-02T13:15:35;23.60;49.10
3850;DHT22;1940;51.052;13.678;2022-09-02T13:21:29;23.00;50.60
3850;DHT22;1940;51.052;13.678;2022-09-02T13:28:01;22.50;51.60
3850;DHT22;1940;51.052;13.678;2022-09-02T13:33:15;21.90;52.50
3850;DHT22;1940;51.052;13.678;2022-09-02T13:35:41;21.70;52.80
3850;DHT22;1940;51.052;13.678;2022-09-02T13:38:11;21.60;53.20
3850;DHT22;1940;51.052;13.678;2022-09-02T13:40:38;21.60;53.40
3850;DHT22;1940;51.052;13.678;2022-09-02T13:45:41;21.60;53.50
3850;DHT22;1940;51.052;13.678;2022-09-02T13:50:47;21.60;53.80
3850;DHT22;1940;51.052;13.678;2022-09-02T13:53:30;21.80;52.80
3850;DHT22;1940;51.052;13.678;2022-09-02T13:55:57;22.00;53.20
3850;DHT22;1940;51.052;13.678;2022-09-02T14:00:53;22.10;52.70
3850;DHT22;1940;51.052;13.678;2022-09-02T14:03:20;22.00;52.20
3850;DHT22;1940;51.052;13.678;2022-09-02T14:05:50;21.90;52.70
3850;DHT22;1940;51.052;13.678;2022-09-02T14:08:27;21.90;52.60
3850;DHT22;1940;51.052;13.678;2022-09-02T14:10:53;21.80;52.80
3850;DHT22;1940;51.052;13.678;2022-09-02T14:13:21;21.80;52.80
3850;DHT22;1940;51.052;13.678;2022-09-02T14:15:47;21.70;53.10
3850;DHT22;1940;51.052;13.678;2022-09-02T14:18:16;21.80;53.70
3850;DHT22;1940;51.052;13.678;2022-09-02T14:23:24;21.90;52.20
3850;DHT22;1940;51.052;13.678;2022-09-02T14:25:56;21.90;52.10
3850;DHT22;1940;51.052;13.678;2022-09-02T14:28:27;22.20;52.10
3850;DHT22;1940;51.052;13.678;2022-09-02T14:31:03;22.40;51.20
3850;DHT22;1940;51.052;13.678;2022-09-02T14:33:42;22.50;50.60
3850;DHT22;1940;51.052;13.678;2022-09-02T14:43:47;22.30;51.20
3850;DHT22;1940;51.052;13.678;2022-09-02T14:46:32;22.30;51.40
3850;DHT22;1940;51.052;13.678;2022-09-02T14:49:09;22.30;51.10
3850;DHT22;1940;51.052;13.678;2022-09-02T14:51:43;22.40;51.20
3850;DHT22;1940;51.052;13.678;2022-09-02T14:54:09;22.50;51.50
3850;DHT22;1940;51.052;13.678;2022-09-02T14:56:49;22.40;51.60
3850;DHT22;1940;51.052;13.678;2022-09-02T14:59:16;22.40;51.70
3850;DHT22;1940;51.052;13.678;2022-09-02T15:01:47;22.30;52.20
3850;DHT22;1940;51.052;13.678;2022-09-02T15:04:14;22.30;52.00
3850;DHT22;1940;51.052;13.678;2022-09-02T15:06:41;22.20;51.80
3850;DHT22;1940;51.052;13.678;2022-09-02T15:09:07;22.10;52.10
3850;DHT22;1940;51.052;13.678;2022-09-02T15:11:32;22.20;52.30
3850;DHT22;1940;51.052;13.678;2022-09-02T15:13:58;22.30;52.20
3850;DHT22;1940;51.052;13.678;2022-09-02T15:16:24;22.30;52.30
3850;DHT22;1940;51.052;13.678;2022-09-02T15:19:02;22.20;52.60
3850;DHT22;1940;51.052;13.678;2022-09-02T15:21:28;22.10;52.10
3850;DHT22;1940;51.052;13.678;2022-09-02T15:23:54;21.90;52.50
3850;DHT22;1940;51.052;13.678;2022-09-02T15:26:21;21.80;52.90
3850;DHT22;1940;51.052;13.678;2022-09-02T15:28:49;21.70;53.90
3850;DHT22;1940;51.052;13.678;2022-09-02T15:31:15;21.60;53.90
3850;DHT22;1940;51.052;13.678;2022-09-02T15:33:40;21.40;54.50
3850;DHT22;1940;51.052;13.678;2022-09-02T15:36:07;21.30;55.10
3850;DHT22;1940;51.052;13.678;2022-09-02T15:38:33;21.30;55.30
3850;DHT22;1940;51.052;13.678;2022-09-02T15:41:20;21.30;55.60
3850;DHT22;1940;51.052;13.678;2022-09-02T15:43:47;21.30;55.90
3850;DHT22;1940;51.052;13.678;2022-09-02T15:46:20;21.40;55.60
3850;DHT22;1940;51.052;13.678;2022-09-02T15:48:46;21.40;55.00
3850;DHT22;1940;51.052;13.678;2022-09-02T15:51:13;21.60;54.90
3850;DHT22;1940;51.052;13.678;2022-09-02T15:53:40;21.60;53.70
3850;DHT22;1940;51.052;13.678;2022-09-02T15:56:15;21.50;53.80
3850;DHT22;1940;51.052;13.678;2022-09-02T15:58:40;21.50;54.20
3850;DHT22;1940;51.052;13.678;2022-09-02T16:01:06;21.50;54.00
3850;DHT22;1940;51.052;13.678;2022-09-02T16:03:31;21.40;54.10
3850;DHT22;1940;51.052;13.678;2022-09-02T16:06:05;21.40;53.80
3850;DHT22;1940;51.052;13.678;2022-09-02T16:08:33;21.30;54.50
3850;DHT22;1940;51.052;13.678;2022-09-02T16:11:03;21.30;53.70
3850;DHT22;1940;51.052;13.678;2022-09-02T16:13:30;21.20;54.50
3850;DHT22;1940;51.052;13.678;2022-09-02T16:16:00;21.30;54.90
3850;DHT22;1940;51.052;13.678;2022-09-02T16:18:31;21.40;54.90
3850;DHT22;1940;51.052;13.678;2022-09-02T16:20:56;21.30;54.90
3850;DHT22;1940;51.052;13.678;2022-09-02T16:23:22;21.20;55.40
3850;DHT22;1940;51.052;13.678;2022-09-02T16:26:14;21.20;55.50
3850;DHT22;1940;51.052;13.678;2022-09-02T16:28:42;21.10;55.70
3850;DHT22;1940;51.052;13.678;2022-09-02T16:31:09;21.00;55.20
3850;DHT22;1940;51.052;13.678;2022-09-02T16:33:35;20.90;55.70
3850;DHT22;1940;51.052;13.678;2022-09-02T16:36:01;20.80;56.00
3850;DHT22;1940;51.052;13.678;2022-09-02T16:38:27;20.70;56.00
3850;DHT22;1940;51.052;13.678;2022-09-02T16:40:55;20.60;55.80
3850;DHT22;1940;51.052;13.678;2022-09-02T16:43:21;20.60;55.90
3850;DHT22;1940;51.052;13.678;2022-09-02T16:45:48;20.50;56.20
3850;DHT22;1940;51.052;13.678;2022-09-02T16:48:14;20.50;56.20
3850;DHT22;1940;51.052;13.678;2022-09-02T16:50:40;20.50;56.00
3850;DHT22;1940;51.052;13.678;2022-09-02T16:53:06;20.40;55.90
3850;DHT22;1940;51.052;13.678;2022-09-02T16:55:31;20.40;56.00
3850;DHT22;1940;51.052;13.678;2022-09-02T16:57:57;20.40;56.30
3850;DHT22;1940;51.052;13.678;2022-09-02T17:00:25;20.50;56.70
3850;DHT22;1940;51.052;13.678;2022-09-02T17:02:51;20.40;56.50
3850;DHT22;1940;51.052;13.678;2022-09-02T17:05:16;20.40;56.40
3850;DHT22;1940;51.052;13.678;2022-09-02T17:07:42;20.40;56.60
3850;DHT22;1940;51.052;13.678;2022-09-02T17:10:09;20.40;56.80
3850;DHT22;1940;51.052;13.678;2022-09-02T17:12:35;20.40;57.00
3850;DHT22;1940;51.052;13.678;2022-09-02T17:15:01;20.50;57.10
3850;DHT22;1940;51.052;13.678;2022-09-02T17:17:26;20.40;57.00
3850;DHT22;1940;51.052;13.678;2022-09-02T17:19:52;20.40;56.90
3850;DHT22;1940;51.052;13.678;2022-09-02T17:22:17;20.40;56.60
3850;DHT22;1940;51.052;13.678;2022-09-02T17:24:43;20.40;56.60
3850;DHT22;1940;51.052;13.678;2022-09-02T17:27:08;20.30;55.60
3850;DHT22;1940;51.052;13.678;2022-09-02T17:29:34;20.30;55.60
3850;DHT22;1940;51.052;13.678;2022-09-02T17:32:00;20.20;55.20
3850;DHT22;1940;51.052;13.678;2022-09-02T17:34:26;20.10;55.50
3850;DHT22;1940;51.052;13.678;2022-09-02T17:36:51;20.00;55.80
3850;DHT22;1940;51.052;13.678;2022-09-02T17:39:18;20.00;55.60
3850;DHT22;1940;51.052;13.678;2022-09-02T17:41:44;19.90;55.60
3850;DHT22;1940;51.052;13.678;2022-09-02T17:44:26;19.90;55.70
3850;DHT22;1940;51.052;13.678;2022-09-02T17:46:52;19.90;55.60
3850;DHT22;1940;51.052;13.678;2022-09-02T17:49:21;19.80;55.80
3850;DHT22;1940;51.052;13.678;2022-09-02T17:51:47;19.70;56.00
3850;DHT22;1940;51.052;13.678;2022-09-02T17:54:13;19.70;56.20
3850;DHT22;1940;51.052;13.678;2022-09-02T17:59:15;19.60;56.50
3850;DHT22;1940;51.052;13.678;2022-09-02T18:01:59;19.60;56.50